Lubbock Preston Smith International Airport Lubbock US
ICAO: KLBB
IATA: LBB
Category: Large
Scheduled Services: Yes

Elevation: 3282 ft
TransAlt. 18000 ft.

Airport Communications:
APP:119.2
ATIS:125.3
CLNC DEL:125.8
DEP:119.2
GND:121.9
FORT WORTH RDO:122.55
TWR:120.5
UNICOM:122.95

KLBB Zoom In..

Runways:

(A) RW 08 length 8003 ft width 150 ft
---- / hdg 81

(B) RW 17L length 2891 ft width 75 ft
---- / hdg 171

(C) RW 17R length 11500 ft width 150 ft
ILS 111.70 / hdg 171

(D) RW 26 length 8003 ft width 150 ft
ILS 111.90 / hdg 261

(E) RW 35L length 11500 ft width 150 ft
---- / hdg 351

(F) RW 35R length 2891 ft width 75 ft
---- / hdg 351

Location; KLBB
Day. 11 / Time. 09.07 Zulu
* Altimeter: 30.02
* Temperature: 24° c. 75.2°f.
* Wind from: 150° Speed 13 kn.
Dewpoint: 16° c.
Visibility: 10 Statute Miles.
Clouds: Few 4500 ft.
Clouds: Scattered 7000 ft.
Clouds: Scattered 11000 ft.
Conditions: Cumulonimbus.

KLBB 110907Z 15013KT 10SM FEW045 SCT070 SCT110 24/16 A3002 RMK AO2 LTG DSNT N-SE TSE06 CONS LTGICCC DSNT NE-SE CB DSNT NE-SE MOV SE T02440161 $

Going to: --> -->


Wind From 150°
Speed 13 kn.

 
 
jpsmedia worldairports.se 2020   terms of use